createdAt,value
2022-09-17T00:01:44.738Z,23.07
2022-09-17T00:04:11.949Z,21.53
2022-09-17T00:06:41.483Z,37.43
2022-09-17T00:09:11.673Z,41.73
2022-09-17T00:11:42.894Z,20.90
2022-09-17T00:14:16.609Z,18.07
2022-09-17T00:16:46.872Z,27.73
2022-09-17T00:19:20.209Z,23.40
2022-09-17T00:21:47.543Z,26.10
2022-09-17T00:24:16.697Z,24.07
2022-09-17T00:26:44.115Z,27.57
2022-09-17T00:29:12.082Z,15.27
2022-09-17T00:31:39.336Z,30.50
2022-09-17T00:34:09.406Z,29.60
2022-09-17T00:36:38.369Z,29.13
2022-09-17T00:39:09.862Z,37.27
2022-09-17T00:41:41.803Z,31.53
2022-09-17T00:44:50.837Z,25.60
2022-09-17T00:47:31.479Z,31.20
2022-09-17T00:50:06.194Z,33.63
2022-09-17T00:52:44.234Z,31.67
2022-09-17T00:55:17.876Z,21.00
2022-09-17T00:57:45.992Z,26.83
2022-09-17T01:00:15.660Z,21.90
2022-09-17T01:02:44.047Z,54.87
2022-09-17T01:05:13.038Z,18.67
2022-09-17T01:07:59.243Z,26.83
2022-09-17T01:10:50.184Z,31.87
2022-09-17T01:13:54.844Z,26.27
2022-09-17T01:16:56.768Z,25.70
2022-09-17T01:19:54.499Z,39.87
2022-09-17T01:22:52.147Z,32.10
2022-09-17T01:25:38.574Z,36.33
2022-09-17T01:28:20.407Z,24.90
2022-09-17T01:31:11.663Z,19.37
2022-09-17T01:33:52.795Z,25.67
2022-09-17T01:36:46.695Z,28.37
2022-09-17T01:39:28.524Z,26.47
2022-09-17T01:42:01.163Z,23.37
2022-09-17T01:45:02.209Z,32.17
2022-09-17T01:47:36.443Z,20.00
2022-09-17T01:51:02.796Z,28.10
2022-09-17T01:53:57.881Z,31.57
2022-09-17T01:56:31.800Z,28.87
2022-09-17T01:59:22.351Z,34.10
2022-09-17T02:01:55.669Z,22.37
2022-09-17T02:04:37.429Z,29.07
2022-09-17T02:07:12.828Z,25.67
2022-09-17T02:10:09.732Z,42.40
2022-09-17T02:12:46.898Z,26.20
2022-09-17T02:15:25.086Z,32.13
2022-09-17T02:18:05.237Z,28.47
2022-09-17T02:20:45.202Z,27.60
2022-09-17T02:23:20.156Z,20.07
2022-09-17T02:26:11.544Z,22.47
2022-09-17T02:28:55.510Z,20.30
2022-09-17T02:31:22.907Z,23.43
2022-09-17T02:33:57.332Z,17.37
2022-09-17T02:36:25.047Z,18.27
2022-09-17T02:39:01.757Z,19.80
2022-09-17T02:42:10.408Z,25.07
2022-09-17T02:44:54.232Z,15.03
2022-09-17T02:47:58.182Z,18.23
2022-09-17T02:50:56.257Z,29.93
2022-09-17T02:53:58.349Z,33.43
2022-09-17T02:56:51.979Z,19.07
2022-09-17T02:59:58.770Z,33.27
2022-09-17T03:02:44.210Z,19.63
2022-09-17T03:05:16.635Z,33.73
2022-09-17T03:07:43.590Z,10.30
2022-09-17T03:10:13.604Z,22.87
2022-09-17T03:12:41.158Z,12.47
2022-09-17T03:15:11.892Z,19.83
2022-09-17T03:17:39.050Z,20.43
2022-09-17T03:20:08.976Z,14.50
2022-09-17T03:22:38.161Z,20.97
2022-09-17T03:25:08.135Z,20.30
2022-09-17T03:27:35.124Z,10.37
2022-09-17T03:30:02.178Z,20.43
2022-09-17T03:32:31.585Z,13.60
2022-09-17T03:34:58.454Z,23.33
2022-09-17T03:37:32.749Z,10.50
2022-09-17T03:40:00.057Z,13.00
2022-09-17T03:42:28.991Z,8.43
2022-09-17T03:44:57.063Z,17.10
2022-09-17T03:47:24.056Z,18.87
2022-09-17T03:49:53.027Z,16.00
2022-09-17T03:52:22.020Z,15.40
2022-09-17T03:54:49.278Z,10.33
2022-09-17T03:57:16.904Z,13.10
2022-09-17T03:59:47.347Z,12.93
2022-09-17T04:02:14.448Z,19.27
2022-09-17T04:04:43.648Z,9.70
2022-09-17T04:07:10.493Z,14.53
2022-09-17T04:09:37.492Z,14.80
2022-09-17T04:12:04.838Z,9.80
2022-09-17T04:14:33.927Z,12.27
2022-09-17T04:17:00.884Z,14.40
2022-09-17T04:19:27.959Z,19.00
2022-09-17T04:21:57.329Z,15.10
2022-09-17T04:24:24.372Z,6.40
2022-09-17T04:26:51.467Z,17.77
2022-09-17T04:29:20.622Z,7.23
2022-09-17T04:31:49.719Z,14.30
2022-09-17T04:34:16.583Z,16.23
2022-09-17T04:36:45.932Z,11.93
2022-09-17T04:39:13.009Z,12.00
2022-09-17T04:41:40.470Z,16.77
2022-09-17T04:44:09.947Z,15.70
2022-09-17T04:46:36.952Z,13.37
2022-09-17T04:49:06.470Z,15.67
2022-09-17T04:51:33.278Z,15.37
2022-09-17T04:54:02.906Z,14.70
2022-09-17T04:56:29.764Z,8.87
2022-09-17T04:58:58.871Z,14.30
2022-09-17T05:01:26.089Z,23.10
2022-09-17T05:04:00.470Z,6.77
2022-09-17T05:06:27.458Z,15.93
2022-09-17T05:09:00.463Z,8.80
2022-09-17T05:11:28.100Z,19.23
2022-09-17T05:13:55.477Z,10.93
2022-09-17T05:16:22.570Z,14.57
2022-09-17T05:18:51.609Z,11.87
2022-09-17T05:21:20.536Z,10.60
2022-09-17T05:23:48.445Z,12.97
2022-09-17T05:26:17.209Z,15.33
2022-09-17T05:28:44.347Z,12.13
2022-09-17T05:31:13.807Z,10.10
2022-09-17T05:33:40.986Z,12.97
2022-09-17T05:36:08.225Z,5.73
2022-09-17T05:38:35.250Z,4.40
2022-09-17T05:41:08.444Z,6.90
2022-09-17T05:43:35.363Z,11.50
2022-09-17T05:46:07.108Z,7.53
2022-09-17T05:48:34.265Z,5.47
2022-09-17T05:51:01.231Z,10.73
2022-09-17T05:53:31.597Z,13.50
2022-09-17T05:55:59.452Z,18.60
2022-09-17T05:58:34.464Z,12.67
2022-09-17T06:01:04.324Z,11.60
2022-09-17T06:03:31.126Z,13.63
2022-09-17T06:06:04.386Z,5.90
2022-09-17T06:08:31.396Z,8.53
2022-09-17T06:11:02.264Z,8.70
2022-09-17T06:13:29.380Z,20.83
2022-09-17T06:15:58.636Z,4.67
2022-09-17T06:18:25.584Z,9.50
2022-09-17T06:20:58.275Z,14.07
2022-09-17T06:23:25.559Z,8.13
2022-09-17T06:25:58.523Z,11.33
2022-09-17T06:28:29.440Z,13.37
2022-09-17T06:31:01.235Z,12.47
2022-09-17T06:33:28.694Z,6.67
2022-09-17T06:36:14.100Z,25.97
2022-09-17T06:38:44.717Z,12.67
2022-09-17T06:41:12.624Z,9.20
2022-09-17T06:43:42.588Z,15.80
2022-09-17T06:46:10.313Z,12.93
2022-09-17T06:48:40.643Z,7.70
2022-09-17T06:51:10.806Z,11.17
2022-09-17T06:53:41.596Z,13.03
2022-09-17T06:56:10.050Z,16.50
2022-09-17T06:58:38.355Z,14.27
2022-09-17T07:01:06.011Z,14.53
2022-09-17T07:03:33.865Z,12.50
2022-09-17T07:06:00.770Z,18.10
2022-09-17T07:08:34.781Z,10.93
2022-09-17T07:11:01.828Z,16.60
2022-09-17T07:13:28.649Z,15.67
2022-09-17T07:16:01.586Z,12.53
2022-09-17T07:18:29.318Z,15.50
2022-09-17T07:20:58.613Z,14.00
2022-09-17T07:23:33.362Z,7.70
2022-09-17T07:26:11.198Z,17.83
2022-09-17T07:28:41.131Z,13.10
2022-09-17T07:31:18.583Z,18.53
2022-09-17T07:33:47.972Z,9.13
2022-09-17T07:36:20.733Z,17.60
2022-09-17T07:38:47.686Z,12.30
2022-09-17T07:41:18.731Z,7.47
2022-09-17T07:43:50.192Z,5.00
2022-09-17T07:46:19.720Z,18.80
2022-09-17T07:48:48.081Z,14.47
2022-09-17T07:51:26.192Z,19.23
2022-09-17T07:53:54.739Z,8.03
2022-09-17T07:56:25.254Z,11.17
2022-09-17T07:58:52.881Z,6.93
2022-09-17T08:01:23.158Z,15.00
2022-09-17T08:03:56.878Z,16.20
2022-09-17T08:06:26.236Z,7.60
2022-09-17T08:08:53.197Z,10.67
2022-09-17T08:11:44.645Z,20.77
2022-09-17T08:14:13.316Z,9.97
2022-09-17T08:16:42.637Z,9.73
2022-09-17T08:19:10.985Z,11.90
2022-09-17T08:21:43.406Z,9.10
2022-09-17T08:24:10.384Z,10.63
2022-09-17T08:26:40.574Z,13.50
2022-09-17T08:29:11.251Z,10.33
2022-09-17T08:31:38.287Z,12.70
2022-09-17T08:34:11.241Z,9.40
2022-09-17T08:36:40.757Z,10.80
2022-09-17T08:39:08.228Z,10.97
2022-09-17T08:41:58.470Z,9.17
2022-09-17T08:44:35.838Z,7.50
2022-09-17T08:47:13.359Z,10.20
2022-09-17T08:49:59.004Z,6.93
2022-09-17T08:52:47.319Z,4.77
2022-09-17T08:55:35.145Z,5.10
2022-09-17T08:58:14.583Z,3.50
2022-09-17T09:01:01.054Z,7.60
2022-09-17T09:04:00.375Z,7.40
2022-09-17T09:06:36.281Z,13.87
2022-09-17T09:09:15.275Z,4.53
2022-09-17T09:11:43.650Z,10.97
2022-09-17T09:14:27.867Z,5.60
2022-09-17T09:16:56.901Z,5.97
2022-09-17T09:19:30.931Z,6.47
2022-09-17T09:22:25.371Z,9.10
2022-09-17T09:25:18.872Z,3.57
2022-09-17T09:28:29.966Z,2.43
2022-09-17T09:31:42.055Z,5.90
2022-09-17T09:34:10.570Z,2.60
2022-09-17T09:36:43.613Z,3.23
2022-09-17T09:39:24.359Z,7.03
2022-09-17T09:42:11.328Z,7.40
2022-09-17T09:44:38.741Z,6.73
2022-09-17T09:47:29.465Z,4.10
2022-09-17T09:50:08.172Z,7.20
2022-09-17T09:52:59.713Z,3.00
2022-09-17T09:55:51.346Z,10.87
2022-09-17T09:58:43.125Z,4.10
2022-09-17T10:01:17.242Z,5.37
2022-09-17T10:03:47.652Z,6.53
2022-09-17T10:06:18.376Z,2.00
2022-09-17T10:08:57.334Z,3.53
2022-09-17T10:11:30.539Z,4.30
2022-09-17T10:14:27.816Z,3.27
2022-09-17T10:17:26.703Z,2.27
2022-09-17T10:20:05.433Z,4.13
2022-09-17T10:22:39.506Z,1.63
2022-09-17T10:25:35.496Z,1.57
2022-09-17T10:28:24.921Z,3.33
2022-09-17T10:31:05.155Z,2.90
2022-09-17T10:33:37.356Z,2.13
2022-09-17T10:36:10.174Z,4.63
2022-09-17T10:38:46.452Z,2.70
2022-09-17T10:41:22.375Z,4.60
2022-09-17T10:43:50.592Z,5.33
2022-09-17T10:46:30.281Z,5.80
2022-09-17T10:49:11.568Z,3.80
2022-09-17T10:51:41.669Z,5.73
2022-09-17T10:55:05.752Z,2.30
2022-09-17T10:58:09.913Z,3.33
2022-09-17T11:00:58.029Z,0.70
2022-09-17T11:04:10.258Z,1.03
2022-09-17T11:07:01.854Z,2.93
2022-09-17T11:09:45.877Z,0.73
2022-09-17T11:12:20.977Z,1.00
2022-09-17T11:15:02.109Z,2.73
2022-09-17T11:17:59.590Z,0.80
2022-09-17T11:21:01.289Z,1.17
2022-09-17T11:24:05.655Z,0.80
2022-09-17T11:27:10.563Z,0.70
2022-09-17T11:30:20.783Z,1.27
2022-09-17T11:33:25.351Z,1.63
2022-09-17T11:36:11.988Z,1.93
2022-09-17T11:38:53.248Z,2.23
2022-09-17T11:41:41.900Z,1.53
2022-09-17T11:44:36.042Z,4.40
2022-09-17T11:47:22.136Z,1.97
2022-09-17T11:50:27.863Z,3.27
2022-09-17T11:53:37.885Z,2.70
2022-09-17T11:56:29.722Z,3.30
2022-09-17T11:59:37.275Z,6.20
2022-09-17T12:02:22.249Z,1.50
2022-09-17T12:05:08.010Z,7.10
2022-09-17T12:07:58.288Z,3.10
2022-09-17T12:11:00.230Z,5.27
2022-09-17T12:13:48.722Z,3.53
2022-09-17T12:16:33.528Z,8.13
2022-09-17T12:19:15.247Z,10.60
2022-09-17T12:21:54.219Z,2.43
2022-09-17T12:24:32.848Z,5.90
2022-09-17T12:27:25.747Z,6.47
2022-09-17T12:30:15.178Z,13.50
2022-09-17T12:33:11.986Z,4.07
2022-09-17T12:36:09.682Z,8.73
2022-09-17T12:38:45.661Z,2.23
2022-09-17T12:41:35.438Z,2.20
2022-09-17T12:44:36.350Z,5.20
2022-09-17T12:47:43.798Z,3.57
2022-09-17T12:50:32.205Z,6.37
2022-09-17T12:53:30.834Z,3.63
2022-09-17T12:56:49.548Z,7.40
2022-09-17T12:59:21.026Z,8.07
2022-09-17T13:02:15.711Z,2.60
2022-09-17T13:05:01.465Z,7.40
2022-09-17T13:07:43.196Z,3.80
2022-09-17T13:10:26.343Z,5.40
2022-09-17T13:13:25.133Z,4.53
2022-09-17T13:16:44.760Z,2.43
2022-09-17T13:19:40.123Z,6.40
2022-09-17T13:22:18.230Z,3.30
2022-09-17T13:25:02.393Z,5.80
2022-09-17T13:27:37.720Z,4.20
2022-09-17T13:30:11.147Z,6.03
2022-09-17T13:32:40.925Z,11.53
2022-09-17T13:35:13.763Z,5.87
2022-09-17T13:37:52.959Z,6.33
2022-09-17T13:40:28.278Z,3.03
2022-09-17T13:43:18.088Z,3.93
2022-09-17T13:46:00.192Z,2.20
2022-09-17T13:48:33.054Z,6.10
2022-09-17T13:51:34.950Z,4.70
2022-09-17T13:54:10.080Z,1.77
2022-09-17T13:56:54.780Z,4.10
2022-09-17T13:59:28.965Z,3.73
2022-09-17T14:02:04.996Z,6.27
2022-09-17T14:04:48.431Z,3.93
2022-09-17T14:07:31.169Z,3.87
2022-09-17T14:10:22.328Z,5.93
2022-09-17T14:12:56.217Z,5.70
2022-09-17T14:15:41.457Z,3.77
2022-09-17T14:18:28.461Z,3.10
2022-09-17T14:21:30.642Z,3.00
2022-09-17T14:24:02.405Z,2.40
2022-09-17T14:26:44.403Z,1.73
2022-09-17T14:29:58.263Z,7.60
2022-09-17T14:32:40.201Z,2.77
2022-09-17T14:35:43.084Z,2.40
2022-09-17T14:38:15.294Z,3.10
2022-09-17T14:40:54.659Z,6.03
2022-09-17T14:44:25.433Z,2.97
2022-09-17T14:47:00.731Z,5.07
2022-09-17T14:49:33.905Z,3.13
2022-09-17T14:52:02.384Z,12.53
2022-09-17T14:54:36.044Z,3.47
2022-09-17T14:57:09.362Z,7.47
2022-09-17T14:59:57.773Z,4.30
2022-09-17T15:02:32.076Z,10.70
2022-09-17T15:05:00.102Z,8.23
2022-09-17T15:07:29.895Z,8.90
2022-09-17T15:10:28.772Z,4.50
2022-09-17T15:12:56.040Z,6.40
2022-09-17T15:15:26.336Z,7.43
2022-09-17T15:17:54.621Z,9.60
2022-09-17T15:20:31.314Z,5.13
2022-09-17T15:23:22.613Z,6.60
2022-09-17T15:25:52.870Z,9.73
2022-09-17T15:28:37.058Z,4.43
2022-09-17T15:31:07.244Z,4.93
2022-09-17T15:33:38.828Z,5.90
2022-09-17T15:36:20.141Z,6.93
2022-09-17T15:38:47.222Z,8.70
2022-09-17T15:41:29.539Z,3.30
2022-09-17T15:44:36.335Z,5.50
2022-09-17T15:47:54.498Z,6.00
2022-09-17T15:50:24.820Z,4.57
2022-09-17T15:53:10.727Z,5.77
2022-09-17T15:55:43.742Z,1.50
2022-09-17T15:58:41.890Z,4.67
2022-09-17T16:01:18.257Z,4.93
2022-09-17T16:03:45.131Z,3.90
2022-09-17T16:06:18.127Z,1.60
2022-09-17T16:09:05.182Z,6.10
2022-09-17T16:11:32.889Z,2.30
2022-09-17T16:14:01.589Z,6.80
2022-09-17T16:16:32.458Z,3.43
2022-09-17T16:18:59.514Z,2.37
2022-09-17T16:21:26.424Z,3.43
2022-09-17T16:23:54.115Z,6.47
2022-09-17T16:26:25.307Z,2.10
2022-09-17T16:28:58.550Z,5.23
2022-09-17T16:31:28.176Z,2.90
2022-09-17T16:33:55.199Z,1.40
2022-09-17T16:36:24.798Z,2.47
2022-09-17T16:38:51.902Z,1.97
2022-09-17T16:41:19.007Z,1.60
2022-09-17T16:43:48.133Z,2.90
2022-09-17T16:46:15.469Z,4.40
2022-09-17T16:48:48.052Z,6.13
2022-09-17T16:51:15.049Z,3.83
2022-09-17T16:53:41.961Z,2.73
2022-09-17T16:56:17.586Z,5.60
2022-09-17T16:58:46.971Z,15.53
2022-09-17T17:01:16.456Z,4.07
2022-09-17T17:03:45.755Z,5.30
2022-09-17T17:06:22.852Z,2.80
2022-09-17T17:08:49.944Z,4.93
2022-09-17T17:11:16.831Z,1.40
2022-09-17T17:13:47.395Z,1.67
2022-09-17T17:16:15.307Z,2.20
2022-09-17T17:18:44.195Z,4.67
2022-09-17T17:21:16.324Z,2.83
2022-09-17T17:23:47.938Z,5.27
2022-09-17T17:26:18.486Z,7.83
2022-09-17T17:28:49.250Z,5.43
2022-09-17T17:31:16.314Z,3.07
2022-09-17T17:33:43.538Z,4.63
2022-09-17T17:36:10.768Z,2.50
2022-09-17T17:38:38.960Z,3.03
2022-09-17T17:41:15.040Z,2.20
2022-09-17T17:43:42.303Z,3.17
2022-09-17T17:46:14.845Z,4.43
2022-09-17T17:48:43.806Z,4.63
2022-09-17T17:51:13.598Z,2.83
2022-09-17T17:53:43.692Z,2.60
2022-09-17T17:56:13.978Z,4.87
2022-09-17T17:58:41.528Z,2.90
2022-09-17T18:01:19.665Z,5.60
2022-09-17T18:03:47.087Z,8.23
2022-09-17T18:06:14.548Z,1.80
2022-09-17T18:08:44.077Z,6.07
2022-09-17T18:11:11.959Z,3.70
2022-09-17T18:13:39.857Z,8.00
2022-09-17T18:16:11.583Z,6.73
2022-09-17T18:18:45.223Z,10.00
2022-09-17T18:21:18.210Z,4.07
2022-09-17T18:23:46.421Z,6.43
2022-09-17T18:26:18.526Z,2.00
2022-09-17T18:28:46.124Z,7.70
2022-09-17T18:31:26.121Z,4.23
2022-09-17T18:34:05.605Z,6.17
2022-09-17T18:36:37.361Z,2.67
2022-09-17T18:39:52.887Z,4.70
2022-09-17T18:41:55.002Z,6.00
2022-09-17T18:44:22.553Z,6.63
2022-09-17T18:46:51.193Z,4.70
2022-09-17T18:49:20.759Z,20.20
2022-09-17T18:51:52.469Z,15.40
2022-09-17T18:54:24.203Z,6.30
2022-09-17T18:56:51.217Z,5.67
2022-09-17T18:59:21.112Z,3.70
2022-09-17T19:01:49.099Z,1.80
2022-09-17T19:04:18.289Z,11.63
2022-09-17T19:06:47.527Z,6.33
2022-09-17T19:09:14.390Z,5.30
2022-09-17T19:11:41.310Z,3.23
2022-09-17T19:14:10.697Z,4.53
2022-09-17T19:16:40.096Z,1.53
2022-09-17T19:19:07.092Z,8.27
2022-09-17T19:21:33.908Z,5.20
2022-09-17T19:24:02.847Z,6.87
2022-09-17T19:26:32.981Z,5.60
2022-09-17T19:29:06.385Z,4.60
2022-09-17T19:31:33.474Z,2.97
2022-09-17T19:34:01.025Z,7.07
2022-09-17T19:36:28.033Z,5.10
2022-09-17T19:39:03.279Z,3.53
2022-09-17T19:41:36.108Z,8.93
2022-09-17T19:44:03.853Z,6.40
2022-09-17T19:46:32.396Z,6.47
2022-09-17T19:49:00.555Z,3.30
2022-09-17T19:51:31.999Z,10.10
2022-09-17T19:54:01.247Z,8.23
2022-09-17T19:56:33.014Z,12.33
2022-09-17T19:58:59.968Z,3.63
2022-09-17T20:01:27.299Z,4.70
2022-09-17T20:03:57.136Z,9.93
2022-09-17T20:06:27.212Z,2.30
2022-09-17T20:08:55.547Z,5.50
2022-09-17T20:11:26.565Z,7.50
2022-09-17T20:14:08.652Z,6.40
2022-09-17T20:16:38.540Z,9.67
2022-09-17T20:19:08.562Z,7.43
2022-09-17T20:21:38.090Z,7.50
2022-09-17T20:24:07.569Z,7.33
2022-09-17T20:26:35.292Z,8.83
2022-09-17T20:29:04.846Z,8.80
2022-09-17T20:31:35.271Z,14.93
2022-09-17T20:34:03.855Z,14.77
2022-09-17T20:36:34.191Z,18.73
2022-09-17T20:39:22.729Z,12.90
2022-09-17T20:41:52.080Z,16.00
2022-09-17T20:44:19.068Z,18.20
2022-09-17T20:46:48.394Z,12.10
2022-09-17T20:49:15.629Z,12.30
2022-09-17T20:51:42.599Z,16.33
2022-09-17T20:54:15.914Z,19.73
2022-09-17T20:56:46.514Z,12.43
2022-09-17T20:59:18.646Z,9.83
2022-09-17T21:01:50.299Z,16.20
2022-09-17T21:04:21.849Z,11.67
2022-09-17T21:06:54.213Z,16.10
2022-09-17T21:09:23.656Z,22.07
2022-09-17T21:11:50.622Z,7.47
2022-09-17T21:14:20.634Z,19.00
2022-09-17T21:16:48.530Z,17.10
2022-09-17T21:19:17.363Z,16.60
2022-09-17T21:21:44.751Z,16.33
2022-09-17T21:24:13.774Z,13.10
2022-09-17T21:26:40.725Z,12.33
2022-09-17T21:29:09.754Z,8.27
2022-09-17T21:31:37.685Z,16.97
2022-09-17T21:34:08.259Z,16.03
2022-09-17T21:36:40.798Z,10.40
2022-09-17T21:39:13.581Z,10.30
2022-09-17T21:41:42.791Z,16.77
2022-09-17T21:44:11.882Z,9.70
2022-09-17T21:46:40.543Z,12.03
2022-09-17T21:49:13.488Z,21.27
2022-09-17T21:51:43.429Z,18.63
2022-09-17T21:54:19.157Z,13.40
2022-09-17T21:56:46.848Z,11.83
2022-09-17T21:59:17.891Z,13.27
2022-09-17T22:01:50.432Z,9.70
2022-09-17T22:04:25.722Z,11.83
2022-09-17T22:06:55.581Z,10.17
2022-09-17T22:09:25.644Z,8.63
2022-09-17T22:11:53.374Z,15.50
2022-09-17T22:14:25.185Z,14.70
2022-09-17T22:16:56.808Z,12.53
2022-09-17T22:19:25.036Z,14.83
2022-09-17T22:21:54.857Z,15.43
2022-09-17T22:24:23.172Z,8.83
2022-09-17T22:26:57.822Z,16.10
2022-09-17T22:29:28.179Z,18.10
2022-09-17T22:31:57.431Z,14.63
2022-09-17T22:34:25.909Z,9.30
2022-09-17T22:36:52.925Z,10.90
2022-09-17T22:39:27.845Z,15.47
2022-09-17T22:41:54.692Z,10.27
2022-09-17T22:44:21.819Z,12.97
2022-09-17T22:46:51.605Z,10.27
2022-09-17T22:49:19.461Z,14.13
2022-09-17T22:51:51.281Z,17.07
2022-09-17T22:54:21.762Z,10.27
2022-09-17T22:56:49.224Z,8.53
2022-09-17T22:59:21.153Z,7.53
2022-09-17T23:01:48.244Z,14.63
2022-09-17T23:04:15.248Z,27.43
2022-09-17T23:06:45.304Z,11.50
2022-09-17T23:09:15.962Z,14.03
2022-09-17T23:11:45.845Z,12.50
2022-09-17T23:14:13.724Z,14.97
2022-09-17T23:16:44.885Z,13.17
2022-09-17T23:19:12.783Z,9.30
2022-09-17T23:21:40.243Z,20.30
2022-09-17T23:24:11.534Z,9.30
2022-09-17T23:26:43.492Z,7.33
2022-09-17T23:29:13.182Z,8.07
2022-09-17T23:31:40.746Z,12.43
2022-09-17T23:34:12.203Z,18.53
2022-09-17T23:36:40.164Z,14.83
2022-09-17T23:39:11.988Z,4.53
2022-09-17T23:41:43.567Z,13.00
2022-09-17T23:44:16.273Z,9.23
2022-09-17T23:46:46.420Z,18.57
2022-09-17T23:49:16.293Z,14.80
2022-09-17T23:51:43.866Z,9.20
2022-09-17T23:54:10.993Z,10.27
2022-09-17T23:56:39.090Z,11.10
2022-09-17T23:59:07.382Z,9.27
